createdAt,value
2022-08-07T00:01:44.232Z,98168.25
2022-08-07T00:04:37.279Z,98171.02
2022-08-07T00:07:09.550Z,98170.10
2022-08-07T00:09:40.251Z,98172.33
2022-08-07T00:12:19.677Z,98173.78
2022-08-07T00:14:50.293Z,98173.24
2022-08-07T00:17:23.559Z,98175.48
2022-08-07T00:20:03.317Z,98171.59
2022-08-07T00:22:38.205Z,98175.13
2022-08-07T00:25:15.809Z,98177.45
2022-08-07T00:27:52.255Z,98178.97
2022-08-07T00:30:28.556Z,98180.04
2022-08-07T00:32:58.611Z,98179.41
2022-08-07T00:35:30.433Z,98181.64
2022-08-07T00:38:01.611Z,98183.02
2022-08-07T00:40:40.110Z,98184.02
2022-08-07T00:44:01.780Z,98186.31
2022-08-07T00:46:04.679Z,98182.89
2022-08-07T00:48:37.667Z,98181.20
2022-08-07T00:51:12.552Z,98178.89
2022-08-07T00:53:55.120Z,98181.38
2022-08-07T00:56:30.212Z,98178.75
2022-08-07T00:59:03.804Z,98178.52
2022-08-07T01:01:44.528Z,98184.91
2022-08-07T01:04:24.685Z,98186.66
2022-08-07T01:06:59.403Z,98189.16
2022-08-07T01:10:05.124Z,98184.21
2022-08-07T01:12:30.077Z,98185.98
2022-08-07T01:15:04.688Z,98183.66
2022-08-07T01:17:37.126Z,98187.55
2022-08-07T01:20:16.859Z,98185.70
2022-08-07T01:23:16.735Z,98188.23
2022-08-07T01:26:00.439Z,98186.66
2022-08-07T01:28:30.034Z,98187.63
2022-08-07T01:31:01.072Z,98185.63
2022-08-07T01:33:55.815Z,98182.44
2022-08-07T01:36:36.417Z,98184.07
2022-08-07T01:39:16.535Z,98181.86
2022-08-07T01:42:07.095Z,98187.76
2022-08-07T01:44:40.422Z,98185.70
2022-08-07T01:47:14.311Z,98189.35
2022-08-07T01:50:06.676Z,98191.89
2022-08-07T01:52:49.301Z,98189.11
2022-08-07T01:55:22.369Z,98187.89
2022-08-07T01:58:05.920Z,98192.30
2022-08-07T02:01:10.271Z,98191.41
2022-08-07T02:03:50.405Z,98188.29
2022-08-07T02:06:31.410Z,98185.80
2022-08-07T02:09:51.785Z,98188.64
2022-08-07T02:12:29.105Z,98189.88
2022-08-07T02:15:06.035Z,98189.66
2022-08-07T02:17:49.486Z,98189.02
2022-08-07T02:20:24.948Z,98189.48
2022-08-07T02:23:01.940Z,98192.34
2022-08-07T02:26:30.389Z,98196.67
2022-08-07T02:28:45.155Z,98197.10
2022-08-07T02:31:29.120Z,98197.33
2022-08-07T02:34:11.431Z,98199.80
2022-08-07T02:36:49.927Z,98198.11
2022-08-07T02:39:42.506Z,98197.08
2022-08-07T02:42:19.331Z,98200.13
2022-08-07T02:44:54.270Z,98198.73
2022-08-07T02:47:45.116Z,98198.61
2022-08-07T02:50:18.455Z,98204.31
2022-08-07T02:53:03.556Z,98202.64
2022-08-07T02:56:03.710Z,98204.15
2022-08-07T02:58:39.786Z,98204.80
2022-08-07T03:01:35.456Z,98201.31
2022-08-07T03:04:12.955Z,98203.30
2022-08-07T03:06:46.165Z,98203.98
2022-08-07T03:09:42.182Z,98208.20
2022-08-07T03:12:22.054Z,98212.22
2022-08-07T03:14:56.578Z,98214.20
2022-08-07T03:17:25.394Z,98213.25
2022-08-07T03:19:59.481Z,98216.44
2022-08-07T03:22:30.972Z,98213.98
2022-08-07T03:25:01.546Z,98213.56
2022-08-07T03:27:58.745Z,98215.48
2022-08-07T03:30:35.118Z,98220.52
2022-08-07T03:33:10.008Z,98219.27
2022-08-07T03:35:50.128Z,98219.45
2022-08-07T03:38:29.455Z,98220.60
2022-08-07T03:41:01.621Z,98222.95
2022-08-07T03:43:36.071Z,98219.65
2022-08-07T03:46:18.435Z,98217.59
2022-08-07T03:49:02.535Z,98221.14
2022-08-07T03:51:47.859Z,98221.67
2022-08-07T03:54:36.279Z,98223.17
2022-08-07T03:58:32.465Z,98220.98
2022-08-07T04:00:04.404Z,98225.04
2022-08-07T04:02:47.324Z,98226.89
2022-08-07T04:05:40.430Z,98229.50
2022-08-07T04:08:18.364Z,98227.11
2022-08-07T04:10:54.199Z,98228.52
2022-08-07T04:14:10.700Z,98231.06
2022-08-07T04:16:43.030Z,98231.70
2022-08-07T04:19:51.003Z,98233.22
2022-08-07T04:22:27.527Z,98234.73
2022-08-07T04:25:03.683Z,98236.33
2022-08-07T04:27:44.388Z,98239.55
2022-08-07T04:30:43.969Z,98241.49
2022-08-07T04:33:35.274Z,98243.84
2022-08-07T04:36:06.425Z,98246.73
2022-08-07T04:38:37.209Z,98247.36
2022-08-07T04:41:10.175Z,98246.57
2022-08-07T04:44:10.626Z,98248.90
2022-08-07T04:47:04.545Z,98247.09
2022-08-07T04:50:19.727Z,98248.38
2022-08-07T04:53:39.895Z,98254.02
2022-08-07T04:58:15.791Z,98251.73
2022-08-07T05:00:09.889Z,98250.30
2022-08-07T05:02:31.400Z,98253.41
2022-08-07T05:05:52.936Z,98250.75
2022-08-07T05:08:59.850Z,98253.10
2022-08-07T05:11:26.186Z,98254.56
2022-08-07T05:14:55.370Z,98258.73
2022-08-07T05:17:11.997Z,98257.03
2022-08-07T05:19:47.719Z,98257.77
2022-08-07T05:22:27.610Z,98262.02
2022-08-07T05:25:03.317Z,98265.35
2022-08-07T05:28:03.337Z,98264.34
2022-08-07T05:30:34.785Z,98264.63
2022-08-07T05:33:11.782Z,98268.20
2022-08-07T05:35:48.727Z,98269.94
2022-08-07T05:39:00.728Z,98263.88
2022-08-07T05:41:16.621Z,98264.08
2022-08-07T05:44:12.682Z,98267.13
2022-08-07T05:46:43.148Z,98277.98
2022-08-07T05:49:14.335Z,98277.49
2022-08-07T05:51:47.351Z,98279.39
2022-08-07T05:54:31.042Z,98278.07
2022-08-07T05:57:09.481Z,98277.36
2022-08-07T05:59:57.839Z,98280.73
2022-08-07T06:02:52.513Z,98284.30
2022-08-07T06:05:33.372Z,98287.83
2022-08-07T06:08:30.358Z,98286.09
2022-08-07T06:11:04.940Z,98286.29
2022-08-07T06:14:13.719Z,98282.30
2022-08-07T06:16:33.631Z,98282.02
2022-08-07T06:19:58.221Z,98285.29
2022-08-07T06:22:23.124Z,98284.37
2022-08-07T06:25:04.729Z,98279.64
2022-08-07T06:28:00.456Z,98284.06
2022-08-07T06:30:38.617Z,98286.48
2022-08-07T06:33:22.547Z,98285.33
2022-08-07T06:36:12.061Z,98284.95
2022-08-07T06:38:59.026Z,98283.89
2022-08-07T06:41:59.165Z,98281.98
2022-08-07T06:44:52.972Z,98282.64
2022-08-07T06:47:28.723Z,98282.70
2022-08-07T06:50:19.006Z,98283.37
2022-08-07T06:52:56.811Z,98283.80
2022-08-07T06:56:00.033Z,98283.48
2022-08-07T06:58:27.584Z,98283.17
2022-08-07T07:01:14.413Z,98281.98
2022-08-07T07:03:48.072Z,98280.49
2022-08-07T07:06:26.545Z,98280.34
2022-08-07T07:09:20.900Z,98278.44
2022-08-07T07:12:08.161Z,98275.19
2022-08-07T07:15:23.749Z,98274.23
2022-08-07T07:18:05.565Z,98273.79
2022-08-07T07:20:57.531Z,98273.05
2022-08-07T07:24:08.111Z,98277.02
2022-08-07T07:26:33.188Z,98276.83
2022-08-07T07:29:38.932Z,98275.90
2022-08-07T07:32:12.247Z,98275.98
2022-08-07T07:34:53.770Z,98279.80
2022-08-07T07:37:49.445Z,98277.96
2022-08-07T07:40:21.541Z,98282.40
2022-08-07T07:43:27.427Z,98278.18
2022-08-07T07:46:38.266Z,98275.93
2022-08-07T07:50:32.675Z,98272.98
2022-08-07T07:52:44.477Z,98272.30
2022-08-07T07:55:20.894Z,98269.48
2022-08-07T07:57:58.666Z,98265.90
2022-08-07T08:00:35.098Z,98265.23
2022-08-07T08:03:16.652Z,98264.73
2022-08-07T08:05:55.173Z,98267.80
2022-08-07T08:08:34.482Z,98269.38
2022-08-07T08:11:15.997Z,98270.41
2022-08-07T08:14:12.455Z,98270.73
2022-08-07T08:17:56.521Z,98268.81
2022-08-07T08:20:26.265Z,98265.49
2022-08-07T08:23:23.032Z,98255.70
2022-08-07T08:26:19.491Z,98263.13
2022-08-07T08:28:57.660Z,98266.91
2022-08-07T08:31:59.221Z,98266.45
2022-08-07T08:34:39.050Z,98263.20
2022-08-07T08:37:59.543Z,98263.04
2022-08-07T08:40:51.435Z,98266.54
2022-08-07T08:43:58.607Z,98264.29
2022-08-07T08:46:28.700Z,98266.23
2022-08-07T08:49:09.792Z,98263.86
2022-08-07T08:52:16.464Z,98261.48
2022-08-07T09:02:34.746Z,98255.55
2022-08-07T09:05:52.095Z,98253.59
2022-08-07T09:11:56.765Z,98251.86
2022-08-07T09:18:58.195Z,98246.86
2022-08-07T09:25:28.003Z,98240.96
2022-08-07T09:30:05.419Z,98235.00
2022-08-07T09:31:38.654Z,98235.13
2022-08-07T09:34:37.385Z,98234.02
2022-08-07T09:37:55.893Z,98232.50
2022-08-07T09:41:19.697Z,98231.32
2022-08-07T09:47:25.812Z,98235.23
2022-08-07T09:48:00.120Z,98234.30
2022-08-07T09:52:10.008Z,98227.35
2022-08-07T09:54:43.732Z,98225.29
2022-08-07T09:57:46.372Z,98221.38
2022-08-07T10:00:32.024Z,98227.79
2022-08-07T10:04:04.770Z,98228.30
2022-08-07T10:06:49.143Z,98223.20
2022-08-07T10:10:00.071Z,98222.98
2022-08-07T10:13:58.349Z,98222.86
2022-08-07T10:16:55.590Z,98219.94
2022-08-07T10:19:37.570Z,98216.27
2022-08-07T10:22:58.933Z,98214.96
2022-08-07T10:26:01.301Z,98218.73
2022-08-07T10:28:53.434Z,98219.29
2022-08-07T10:31:41.151Z,98222.27
2022-08-07T10:34:45.280Z,98231.26
2022-08-07T10:38:09.818Z,98233.60
2022-08-07T10:41:11.195Z,98247.70
2022-08-07T10:44:08.490Z,98255.39
2022-08-07T10:46:46.902Z,98267.27
2022-08-07T10:49:51.265Z,98264.05
2022-08-07T10:52:51.195Z,98262.48
2022-08-07T10:55:45.380Z,98267.34
2022-08-07T10:58:36.655Z,98265.58
2022-08-07T11:01:51.393Z,98265.70
2022-08-07T11:04:45.630Z,98267.16
2022-08-07T11:07:59.491Z,98262.51
2022-08-07T11:10:39.280Z,98258.61
2022-08-07T11:14:45.196Z,98258.52
2022-08-07T11:16:42.087Z,98251.55
2022-08-07T11:19:35.164Z,98256.02
2022-08-07T11:22:37.069Z,98259.48
2022-08-07T11:25:50.313Z,98248.74
2022-08-07T11:28:32.190Z,98242.77
2022-08-07T11:31:11.693Z,98236.45
2022-08-07T11:34:10.857Z,98235.53
2022-08-07T11:37:00.409Z,98232.49
2022-08-07T11:44:12.740Z,98227.48
2022-08-07T11:51:09.077Z,98229.27
2022-08-07T11:54:09.700Z,98235.41
2022-08-07T11:57:58.074Z,98230.75
2022-08-07T12:00:19.765Z,98234.58
2022-08-07T12:03:54.824Z,98243.55
2022-08-07T12:06:57.326Z,98247.09
2022-08-07T12:09:51.136Z,98242.52
2022-08-07T12:12:43.220Z,98245.75
2022-08-07T12:16:05.663Z,98247.23
2022-08-07T12:18:56.251Z,98244.20
2022-08-07T12:22:35.838Z,98243.44
2022-08-07T12:25:07.699Z,98242.15
2022-08-07T12:28:05.765Z,98242.95
2022-08-07T12:34:00.845Z,98239.39
2022-08-07T12:36:39.308Z,98240.67
2022-08-07T12:39:43.074Z,98239.85
2022-08-07T12:42:54.917Z,98232.69
2022-08-07T12:45:59.265Z,98228.96
2022-08-07T12:49:09.837Z,98222.11
2022-08-07T12:52:34.175Z,98216.56
2022-08-07T12:55:09.401Z,98223.54
2022-08-07T12:58:07.322Z,98214.07
2022-08-07T13:01:05.646Z,98203.19
2022-08-07T13:04:49.227Z,98204.34
2022-08-07T13:08:18.938Z,98205.82
2022-08-07T13:14:58.381Z,98191.02
2022-08-07T13:18:07.980Z,98188.20
2022-08-07T13:20:46.643Z,98187.17
2022-08-07T13:24:11.350Z,98191.62
2022-08-07T13:27:05.451Z,98192.73
2022-08-07T13:30:05.474Z,98184.70
2022-08-07T13:34:33.211Z,98181.89
2022-08-07T13:36:43.781Z,98176.02
2022-08-07T13:39:28.494Z,98178.10
2022-08-07T13:42:14.736Z,98174.16
2022-08-07T13:46:07.057Z,98167.06
2022-08-07T13:51:26.984Z,98169.88
2022-08-07T13:54:04.973Z,98170.44
2022-08-07T13:56:41.404Z,98173.45
2022-08-07T13:59:33.322Z,98174.67
2022-08-07T14:05:38.348Z,98173.50
2022-08-07T14:08:18.298Z,98172.30
2022-08-07T14:11:02.008Z,98177.23
2022-08-07T14:13:56.318Z,98180.52
2022-08-07T14:16:31.914Z,98186.45
2022-08-07T14:20:42.000Z,98178.32
2022-08-07T14:22:53.359Z,98179.14
2022-08-07T14:25:39.357Z,98185.11
2022-08-07T14:28:55.941Z,98188.45
2022-08-07T14:31:10.181Z,98187.61
2022-08-07T14:33:48.758Z,98188.80
2022-08-07T14:36:20.941Z,98194.52
2022-08-07T14:38:54.760Z,98200.88
2022-08-07T14:41:34.171Z,98194.13
2022-08-07T14:47:45.714Z,98198.05
2022-08-07T14:53:17.753Z,98194.84
2022-08-07T14:56:15.764Z,98192.36
2022-08-07T15:00:03.207Z,98190.27
2022-08-07T15:05:26.281Z,98202.48
2022-08-07T15:07:59.398Z,98204.08
2022-08-07T15:10:29.815Z,98202.91
2022-08-07T15:13:12.302Z,98202.61
2022-08-07T15:18:41.705Z,98208.94
2022-08-07T15:25:15.380Z,98204.93
2022-08-07T15:31:04.839Z,98203.47
2022-08-07T15:33:42.680Z,98200.72
2022-08-07T15:37:03.194Z,98201.66
2022-08-07T15:39:10.626Z,98204.36
2022-08-07T15:42:44.141Z,98202.20
2022-08-07T15:45:55.923Z,98200.88
2022-08-07T15:48:36.088Z,98197.38
2022-08-07T15:55:02.642Z,98192.79
2022-08-07T15:57:48.155Z,98193.95
2022-08-07T16:00:31.579Z,98195.33
2022-08-07T16:03:20.584Z,98199.14
2022-08-07T16:05:55.568Z,98200.91
2022-08-07T16:08:38.497Z,98204.30
2022-08-07T16:11:43.304Z,98200.64
2022-08-07T16:14:54.242Z,98196.13
2022-08-07T16:22:01.955Z,98196.98
2022-08-07T16:25:11.092Z,98192.10
2022-08-07T16:28:02.316Z,98189.73
2022-08-07T16:30:41.332Z,98185.98
2022-08-07T16:34:02.720Z,98188.41
2022-08-07T16:36:31.447Z,98198.35
2022-08-07T16:39:49.459Z,98202.19
2022-08-07T16:44:06.333Z,98205.75
2022-08-07T16:47:07.843Z,98213.98
2022-08-07T16:50:28.168Z,98215.48
2022-08-07T16:54:02.413Z,98216.84
2022-08-07T16:56:49.305Z,98220.99
2022-08-07T17:00:03.181Z,98221.52
2022-08-07T17:07:02.769Z,98228.02
2022-08-07T17:10:09.450Z,98231.59
2022-08-07T17:13:04.022Z,98235.54
2022-08-07T17:16:22.457Z,98237.27
2022-08-07T17:20:01.019Z,98236.55
2022-08-07T17:22:44.201Z,98243.96
2022-08-07T17:25:20.275Z,98248.58
2022-08-07T17:28:54.840Z,98252.38
2022-08-07T17:32:03.383Z,98250.95
2022-08-07T17:35:40.184Z,98255.81
2022-08-07T17:38:15.074Z,98259.48
2022-08-07T17:42:01.107Z,98262.48
2022-08-07T17:44:34.164Z,98261.42
2022-08-07T17:47:42.022Z,98267.41
2022-08-07T17:50:30.595Z,98272.91
2022-08-07T17:54:00.796Z,98277.14
2022-08-07T17:56:54.687Z,98281.05
2022-08-07T18:00:07.641Z,98288.71
2022-08-07T18:03:09.053Z,98290.56
2022-08-07T18:06:16.498Z,98296.13
2022-08-07T18:09:01.945Z,98298.76
2022-08-07T18:12:17.869Z,98305.01
2022-08-07T18:15:08.791Z,98308.28
2022-08-07T18:18:47.543Z,98315.88
2022-08-07T18:21:42.332Z,98313.91
2022-08-07T18:24:33.796Z,98323.89
2022-08-07T18:31:33.739Z,98342.02
2022-08-07T18:34:53.400Z,98342.17
2022-08-07T18:41:45.254Z,98351.52
2022-08-07T18:48:10.457Z,98356.14
2022-08-07T18:52:37.376Z,98355.08
2022-08-07T18:54:55.569Z,98356.10
2022-08-07T18:57:58.369Z,98355.47
2022-08-07T19:00:54.103Z,98361.60
2022-08-07T19:03:35.550Z,98360.59
2022-08-07T19:06:36.952Z,98360.30
2022-08-07T19:09:57.625Z,98365.30
2022-08-07T19:12:49.033Z,98363.96
2022-08-07T19:16:05.234Z,98362.77
2022-08-07T19:19:20.251Z,98362.14
2022-08-07T19:26:24.611Z,98363.50
2022-08-07T19:28:29.892Z,98366.58
2022-08-07T19:31:43.655Z,98365.42
2022-08-07T19:34:33.830Z,98363.86
2022-08-07T19:37:17.254Z,98371.34
2022-08-07T19:40:15.566Z,98371.42
2022-08-07T19:42:47.837Z,98372.10
2022-08-07T19:46:09.755Z,98374.36
2022-08-07T19:48:53.800Z,98376.41
2022-08-07T19:51:53.189Z,98378.42
2022-08-07T19:54:35.150Z,98384.30
2022-08-07T19:58:00.720Z,98387.39
2022-08-07T20:00:28.901Z,98384.42
2022-08-07T20:03:33.578Z,98381.77
2022-08-07T20:06:15.482Z,98379.83
2022-08-07T20:09:05.930Z,98383.55
2022-08-07T20:12:23.240Z,98379.53
2022-08-07T20:14:58.661Z,98377.17
2022-08-07T20:17:38.812Z,98380.21
2022-08-07T20:20:09.970Z,98377.43
2022-08-07T20:22:45.483Z,98380.95
2022-08-07T20:25:20.404Z,98379.23
2022-08-07T20:27:58.645Z,98380.61
2022-08-07T20:30:36.876Z,98382.54
2022-08-07T20:33:24.137Z,98387.46
2022-08-07T20:36:05.319Z,98393.84
2022-08-07T20:38:53.440Z,98399.30
2022-08-07T20:41:38.476Z,98403.98
2022-08-07T20:44:12.793Z,98402.92
2022-08-07T20:46:46.958Z,98406.58
2022-08-07T20:49:58.082Z,98407.08
2022-08-07T20:52:52.048Z,98409.77
2022-08-07T20:55:41.389Z,98414.75
2022-08-07T20:58:12.220Z,98417.05
2022-08-07T21:00:56.409Z,98418.09
2022-08-07T21:03:32.671Z,98425.61
2022-08-07T21:06:21.381Z,98426.79
2022-08-07T21:09:07.560Z,98424.65
2022-08-07T21:11:50.875Z,98429.21
2022-08-07T21:14:34.303Z,98429.36
2022-08-07T21:18:02.674Z,98426.23
2022-08-07T21:20:09.837Z,98425.44
2022-08-07T21:22:51.255Z,98428.70
2022-08-07T21:25:56.366Z,98428.95
2022-08-07T21:28:50.926Z,98429.77
2022-08-07T21:31:49.933Z,98429.92
2022-08-07T21:34:32.466Z,98432.27
2022-08-07T21:37:14.625Z,98432.40
2022-08-07T21:40:07.583Z,98429.05
2022-08-07T21:42:55.634Z,98432.13
2022-08-07T21:46:07.895Z,98434.36
2022-08-07T21:48:56.113Z,98431.59
2022-08-07T21:51:34.062Z,98435.26
2022-08-07T21:54:48.289Z,98437.84
2022-08-07T21:57:52.333Z,98439.25
2022-08-07T22:00:29.689Z,98444.60
2022-08-07T22:03:09.086Z,98447.11
2022-08-07T22:05:48.287Z,98452.88
2022-08-07T22:08:21.899Z,98452.02
2022-08-07T22:11:01.151Z,98453.46
2022-08-07T22:13:50.272Z,98454.20
2022-08-07T22:16:44.881Z,98454.44
2022-08-07T22:19:37.001Z,98456.95
2022-08-07T22:22:27.426Z,98458.13
2022-08-07T22:25:08.263Z,98460.14
2022-08-07T22:28:07.548Z,98459.17
2022-08-07T22:31:45.193Z,98463.73
2022-08-07T22:34:35.941Z,98465.73
2022-08-07T22:37:12.575Z,98467.70
2022-08-07T22:40:06.029Z,98468.15
2022-08-07T22:42:47.106Z,98467.23
2022-08-07T22:46:04.413Z,98460.29
2022-08-07T22:49:07.800Z,98460.34
2022-08-07T22:51:57.375Z,98466.15
2022-08-07T22:55:17.320Z,98474.27
2022-08-07T22:58:11.289Z,98473.85
2022-08-07T23:00:46.207Z,98473.50
2022-08-07T23:03:57.993Z,98478.86
2022-08-07T23:06:35.305Z,98472.23
2022-08-07T23:10:05.051Z,98475.46
2022-08-07T23:12:20.834Z,98472.77
2022-08-07T23:16:07.211Z,98473.71
2022-08-07T23:19:47.727Z,98473.90
2022-08-07T23:22:32.615Z,98472.09
2022-08-07T23:25:28.403Z,98472.30
2022-08-07T23:28:22.805Z,98479.84
2022-08-07T23:32:49.170Z,98480.39
2022-08-07T23:34:52.946Z,98476.86
2022-08-07T23:38:00.726Z,98473.52
2022-08-07T23:40:39.692Z,98476.99
2022-08-07T23:43:22.257Z,98480.29
2022-08-07T23:46:10.353Z,98479.84
2022-08-07T23:48:58.613Z,98476.86
2022-08-07T23:53:01.378Z,98479.31
2022-08-07T23:54:53.187Z,98474.73
2022-08-07T23:57:49.611Z,98475.25
